Time;durP1;ratioP1;P1;durP2;ratioP2;P2;SDS_P1;SDS_P2;PMS_P1;PMS_P2;Temp;Humidity;BMP_temperature;BMP_pressure;BME280_temperature;BME280_humidity;BME280_pressure;Samples;Min_cycle;Max_cycle;Signal;HPM_P1;HPM_P2
2021/03/23 00:00:00;;;;;;;7.07;2.80;;;;;;;;;;5035358;28;20472;-77
2021/03/23 00:02:26;;;;;;;3.23;2.50;;;;;;;;;;5051568;28;20554;-77
2021/03/23 00:04:53;;;;;;;3.90;2.33;;;;;;;;;;5052013;28;20220;-77
2021/03/23 00:07:19;;;;;;;3.50;2.40;;;;;;;;;;5051483;28;20198;-77
2021/03/23 00:09:45;;;;;;;4.07;2.57;;;;;;;;;;5051724;28;20181;-77
2021/03/23 00:12:11;;;;;;;2.57;2.30;;;;;;;;;;5035052;28;20186;-76
2021/03/23 00:14:37;;;;;;;3.27;2.37;;;;;;;;;;5035007;28;20677;-77
2021/03/23 00:17:03;;;;;;;3.00;2.50;;;;;;;;;;5051196;28;20277;-77
2021/03/23 00:19:29;;;;;;;3.10;2.20;;;;;;;;;;5034810;28;20186;-77
2021/03/23 00:21:55;;;;;;;4.63;2.60;;;;;;;;;;5052630;28;20189;-76
2021/03/23 00:24:21;;;;;;;2.73;2.43;;;;;;;;;;5051116;28;20284;-76
2021/03/23 00:26:47;;;;;;;2.53;2.00;;;;;;;;;;5050972;28;20661;-77
2021/03/23 00:29:13;;;;;;;4.13;1.90;;;;;;;;;;5051126;28;20189;-76
2021/03/23 00:31:39;;;;;;;3.83;2.03;;;;;;;;;;5052439;28;20262;-76
2021/03/23 00:34:08;;;;;;;2.23;1.90;;;;;;;;;;5034452;28;20666;-76
2021/03/23 00:36:38;;;;;;;4.37;2.00;;;;;;;;;;5051168;28;20217;-76
2021/03/23 00:39:05;;;;;;;4.40;2.10;;;;;;;;;;5051069;28;20749;-77
2021/03/23 00:41:32;;;;;;;4.27;2.23;;;;;;;;;;5034479;28;20272;-75
2021/03/23 00:43:58;;;;;;;3.20;2.10;;;;;;;;;;5034266;28;20237;-76
2021/03/23 00:46:24;;;;;;;3.60;1.97;;;;;;;;;;5050611;28;20192;-75
2021/03/23 00:48:50;;;;;;;2.67;2.00;;;;;;;;;;5050897;28;20621;-76
2021/03/23 00:51:16;;;;;;;3.93;2.30;;;;;;;;;;5034323;28;20244;-76
2021/03/23 00:53:42;;;;;;;2.50;1.90;;;;;;;;;;5050958;28;20205;-76
2021/03/23 00:56:08;;;;;;;2.33;2.00;;;;;;;;;;5033971;28;20183;-76
2021/03/23 00:58:35;;;;;;;4.63;2.50;;;;;;;;;;5033957;28;20255;-75
2021/03/23 01:01:01;;;;;;;3.07;2.10;;;;;;;;;;5034031;28;20275;-76
2021/03/23 01:03:27;;;;;;;3.60;2.20;;;;;;;;;;5033924;28;20186;-76
2021/03/23 01:05:53;;;;;;;3.03;2.10;;;;;;;;;;5050580;28;20174;-76
2021/03/23 01:08:19;;;;;;;4.23;2.07;;;;;;;;;;5050344;28;20572;-76
2021/03/23 01:10:45;;;;;;;2.60;2.00;;;;;;;;;;5050642;28;20181;-76
2021/03/23 01:13:11;;;;;;;3.63;2.30;;;;;;;;;;5050515;28;20318;-75
2021/03/23 01:15:37;;;;;;;2.37;1.93;;;;;;;;;;5052057;28;20179;-79
2021/03/23 01:18:03;;;;;;;2.87;2.07;;;;;;;;;;5034247;28;20305;-78
2021/03/23 01:20:30;;;;;;;3.10;1.80;;;;;;;;;;5033990;28;20175;-78
2021/03/23 01:22:56;;;;;;;2.60;1.70;;;;;;;;;;5050520;28;20174;-78
2021/03/23 01:25:23;;;;;;;3.03;1.77;;;;;;;;;;5033758;28;20673;-79
2021/03/23 01:27:50;;;;;;;2.07;1.80;;;;;;;;;;5051742;28;20197;-78
2021/03/23 01:30:16;;;;;;;1.77;1.53;;;;;;;;;;5050616;28;20174;-77
2021/03/23 01:32:42;;;;;;;3.60;1.80;;;;;;;;;;5033921;28;20182;-78
2021/03/23 01:35:09;;;;;;;3.10;2.00;;;;;;;;;;5033893;28;20205;-77
2021/03/23 01:37:35;;;;;;;2.07;1.50;;;;;;;;;;5033373;28;20201;-79
2021/03/23 01:40:01;;;;;;;2.80;1.60;;;;;;;;;;5033874;28;20658;-78
2021/03/23 01:42:40;;;;;;;3.43;1.53;;;;;;;;;;5050524;28;20181;-78
2021/03/23 01:45:24;;;;;;;4.60;1.50;;;;;;;;;;5050141;28;20749;-78
2021/03/23 01:47:50;;;;;;;2.93;1.80;;;;;;;;;;5049987;28;20575;-79
2021/03/23 01:50:16;;;;;;;3.17;1.50;;;;;;;;;;5033681;28;20282;-77
2021/03/23 01:52:42;;;;;;;3.57;1.60;;;;;;;;;;5034013;28;20227;-79
2021/03/23 01:55:09;;;;;;;4.10;1.77;;;;;;;;;;5050242;28;20255;-78
2021/03/23 01:57:35;;;;;;;1.70;1.60;;;;;;;;;;5034096;28;20251;-78
2021/03/23 02:00:01;;;;;;;2.80;1.80;;;;;;;;;;5050420;28;20605;-78
2021/03/23 02:02:28;;;;;;;2.87;1.80;;;;;;;;;;5033860;28;20564;-78
2021/03/23 02:04:54;;;;;;;2.17;1.93;;;;;;;;;;5050009;28;20268;-78
2021/03/23 02:07:20;;;;;;;4.40;2.07;;;;;;;;;;5049918;28;20191;-78
2021/03/23 02:09:46;;;;;;;4.73;2.33;;;;;;;;;;5033691;28;20209;-78
2021/03/23 02:12:13;;;;;;;3.23;2.30;;;;;;;;;;5050206;28;20557;-78
2021/03/23 02:14:41;;;;;;;3.23;2.20;;;;;;;;;;5050713;28;20186;-78
2021/03/23 02:17:26;;;;;;;6.27;2.40;;;;;;;;;;5036948;28;20204;-78
2021/03/23 02:19:56;;;;;;;5.87;2.93;;;;;;;;;;5053869;28;20216;-77
2021/03/23 02:22:25;;;;;;;3.67;2.40;;;;;;;;;;5014815;28;20187;-78
2021/03/23 02:24:51;;;;;;;3.40;2.33;;;;;;;;;;5015311;28;20211;-79
2021/03/23 02:27:18;;;;;;;3.47;2.83;;;;;;;;;;5013501;28;20665;-79
2021/03/23 02:29:44;;;;;;;4.63;2.73;;;;;;;;;;5014128;28;20184;-79
2021/03/23 02:32:10;;;;;;;2.73;2.20;;;;;;;;;;5013867;28;20203;-78
2021/03/23 02:34:37;;;;;;;5.30;2.73;;;;;;;;;;5014943;28;20276;-78
2021/03/23 02:37:03;;;;;;;2.93;2.30;;;;;;;;;;5013483;28;20676;-77
2021/03/23 02:39:30;;;;;;;4.33;2.90;;;;;;;;;;5013893;28;20560;-78
2021/03/23 02:41:56;;;;;;;3.40;2.90;;;;;;;;;;5013780;28;20226;-78
2021/03/23 02:44:22;;;;;;;3.47;3.00;;;;;;;;;;5013552;28;20592;-78
2021/03/23 02:46:48;;;;;;;5.03;3.10;;;;;;;;;;5013420;28;20172;-78
2021/03/23 02:49:14;;;;;;;3.97;3.00;;;;;;;;;;5013532;28;20179;-78
2021/03/23 02:51:40;;;;;;;6.10;3.40;;;;;;;;;;5013564;28;20211;-79
2021/03/23 02:54:06;;;;;;;3.67;3.17;;;;;;;;;;5013356;28;20186;-78
2021/03/23 02:56:32;;;;;;;5.30;3.00;;;;;;;;;;5013227;28;20191;-78
2021/03/23 02:58:58;;;;;;;3.97;3.00;;;;;;;;;;5013305;28;20334;-79
2021/03/23 03:01:24;;;;;;;3.63;2.87;;;;;;;;;;5013382;28;20211;-78
2021/03/23 03:03:50;;;;;;;3.17;2.47;;;;;;;;;;5013278;28;20203;-79
2021/03/23 03:06:17;;;;;;;6.27;3.07;;;;;;;;;;5012889;28;20194;-78
2021/03/23 03:08:43;;;;;;;5.93;3.30;;;;;;;;;;5013182;28;20193;-78
2021/03/23 03:11:09;;;;;;;3.33;2.60;;;;;;;;;;5012480;28;20183;-77
2021/03/23 03:13:36;;;;;;;3.30;2.70;;;;;;;;;;5013229;28;20187;-78
2021/03/23 03:16:02;;;;;;;4.73;2.90;;;;;;;;;;5012698;28;20219;-78
2021/03/23 03:18:28;;;;;;;4.77;3.10;;;;;;;;;;5012912;28;20223;-78
2021/03/23 03:20:58;;;;;;;3.70;2.70;;;;;;;;;;5013819;28;20181;-79
2021/03/23 03:23:24;;;;;;;4.67;2.90;;;;;;;;;;5015165;28;20206;-79
2021/03/23 03:25:51;;;;;;;3.53;2.53;;;;;;;;;;5015063;28;20700;-79
2021/03/23 03:28:17;;;;;;;4.50;2.80;;;;;;;;;;5015015;28;20210;-78
2021/03/23 03:30:43;;;;;;;5.87;3.23;;;;;;;;;;5014528;28;20188;-78
2021/03/23 03:33:10;;;;;;;4.67;3.03;;;;;;;;;;5014839;28;20214;-78
2021/03/23 03:35:37;;;;;;;4.07;2.70;;;;;;;;;;5014542;28;20179;-79
2021/03/23 03:38:03;;;;;;;4.17;3.00;;;;;;;;;;5014664;28;20206;-78
2021/03/23 03:40:30;;;;;;;4.17;2.97;;;;;;;;;;5014730;28;20273;-79
2021/03/23 03:42:56;;;;;;;5.70;3.10;;;;;;;;;;5015122;28;20176;-79
2021/03/23 03:45:22;;;;;;;3.07;2.70;;;;;;;;;;5014971;28;20583;-80
2021/03/23 03:47:54;;;;;;;3.87;3.07;;;;;;;;;;5016438;28;20202;-79
2021/03/23 03:50:21;;;;;;;6.63;3.53;;;;;;;;;;5015180;28;20618;-80
2021/03/23 03:52:48;;;;;;;4.37;2.70;;;;;;;;;;5014612;28;20183;-79
2021/03/23 03:55:14;;;;;;;3.60;2.90;;;;;;;;;;5013414;28;20242;-79
2021/03/23 03:57:40;;;;;;;4.97;3.00;;;;;;;;;;5012037;28;20695;-78
2021/03/23 04:00:06;;;;;;;4.07;3.03;;;;;;;;;;5012282;28;20180;-78
2021/03/23 04:02:32;;;;;;;5.17;3.50;;;;;;;;;;5013388;28;20191;-78
2021/03/23 04:04:58;;;;;;;3.80;3.40;;;;;;;;;;5011731;28;20215;-78
2021/03/23 04:07:24;;;;;;;4.67;3.20;;;;;;;;;;5011860;28;20196;-79
2021/03/23 04:09:50;;;;;;;6.20;3.87;;;;;;;;;;5012158;28;20669;-78
2021/03/23 04:12:16;;;;;;;6.13;3.90;;;;;;;;;;5011976;28;20179;-78
2021/03/23 04:14:42;;;;;;;5.57;4.20;;;;;;;;;;5011835;28;20187;-79
2021/03/23 04:17:08;;;;;;;5.27;3.50;;;;;;;;;;5011584;28;20691;-77
2021/03/23 04:19:34;;;;;;;7.90;4.00;;;;;;;;;;5032612;23;20317;-75
2021/03/23 04:22:00;;;;;;;5.33;3.90;;;;;;;;;;5023531;28;20266;-74
2021/03/23 04:24:26;;;;;;;5.80;3.63;;;;;;;;;;5022314;28;20578;-74
2021/03/23 04:26:52;;;;;;;4.43;3.70;;;;;;;;;;5026493;28;20617;-74
2021/03/23 04:29:18;;;;;;;3.93;3.50;;;;;;;;;;5024651;28;20222;-76
2021/03/23 04:31:44;;;;;;;8.00;3.73;;;;;;;;;;5032920;28;20259;-76
2021/03/23 04:34:10;;;;;;;5.10;3.73;;;;;;;;;;5015073;28;20613;-75
2021/03/23 04:36:36;;;;;;;6.90;3.83;;;;;;;;;;5015126;28;20205;-74
2021/03/23 04:39:03;;;;;;;5.60;3.67;;;;;;;;;;5014481;28;20269;-74
2021/03/23 04:41:29;;;;;;;5.17;3.73;;;;;;;;;;4998389;28;20655;-75
2021/03/23 04:43:55;;;;;;;5.40;3.97;;;;;;;;;;5032345;28;20293;-75
2021/03/23 04:46:22;;;;;;;6.10;4.20;;;;;;;;;;5006519;28;20175;-74
2021/03/23 04:48:48;;;;;;;5.47;3.73;;;;;;;;;;5014609;28;20186;-76
2021/03/23 04:51:14;;;;;;;4.80;3.93;;;;;;;;;;5014840;28;20214;-75
2021/03/23 04:53:40;;;;;;;5.53;3.93;;;;;;;;;;5014983;28;20170;-75
2021/03/23 04:56:07;;;;;;;7.23;4.20;;;;;;;;;;4998431;28;20642;-75
2021/03/23 04:58:33;;;;;;;4.93;3.70;;;;;;;;;;5014546;28;20277;-74
2021/03/23 05:00:59;;;;;;;6.27;3.83;;;;;;;;;;5014607;28;20210;-74
2021/03/23 05:03:31;;;;;;;6.27;4.07;;;;;;;;;;5014910;28;20213;-75
2021/03/23 05:05:57;;;;;;;5.67;3.90;;;;;;;;;;4998182;28;20303;-74
2021/03/23 05:08:23;;;;;;;5.40;3.77;;;;;;;;;;5014112;28;20660;-75
2021/03/23 05:10:50;;;;;;;4.73;3.80;;;;;;;;;;5024947;28;20186;-75
2021/03/23 05:13:15;;;;;;;6.10;3.90;;;;;;;;;;5013724;28;20182;-75
2021/03/23 05:15:41;;;;;;;7.23;3.63;;;;;;;;;;5014697;28;20278;-75
2021/03/23 05:18:07;;;;;;;5.63;3.50;;;;;;;;;;5031556;28;20193;-74
2021/03/23 05:20:33;;;;;;;6.90;4.40;;;;;;;;;;5014185;28;20185;-74
2021/03/23 05:22:59;;;;;;;6.17;4.20;;;;;;;;;;5014024;28;20253;-74
2021/03/23 05:25:25;;;;;;;6.67;4.23;;;;;;;;;;5014225;28;20218;-74
2021/03/23 05:27:51;;;;;;;6.30;4.10;;;;;;;;;;5031722;28;20186;-75
2021/03/23 05:30:17;;;;;;;6.07;3.80;;;;;;;;;;5014199;28;20556;-73
2021/03/23 05:32:43;;;;;;;6.33;4.07;;;;;;;;;;5014486;28;20548;-74
2021/03/23 05:35:10;;;;;;;5.23;3.83;;;;;;;;;;5014344;28;20185;-74
2021/03/23 05:37:36;;;;;;;6.17;4.07;;;;;;;;;;5013428;28;20607;-73
2021/03/23 05:40:02;;;;;;;6.90;4.20;;;;;;;;;;5014200;28;20199;-74
2021/03/23 05:42:29;;;;;;;5.43;4.33;;;;;;;;;;4997983;28;20231;-74
2021/03/23 05:45:15;;;;;;;7.73;4.87;;;;;;;;;;4998658;28;20217;-75
2021/03/23 05:47:43;;;;;;;9.93;5.50;;;;;;;;;;5022256;28;20200;-74
2021/03/23 05:50:12;;;;;;;9.10;5.40;;;;;;;;;;5015171;28;20255;-74
2021/03/23 05:52:43;;;;;;;11.57;7.17;;;;;;;;;;5035201;28;20674;-75
2021/03/23 05:55:28;;;;;;;10.20;6.33;;;;;;;;;;5018470;28;20187;-76
2021/03/23 05:57:54;;;;;;;10.60;6.77;;;;;;;;;;5001791;28;20589;-75
2021/03/23 06:00:23;;;;;;;11.73;6.80;;;;;;;;;;5018085;28;20237;-76
2021/03/23 06:02:51;;;;;;;9.37;6.53;;;;;;;;;;5019036;28;20571;-75
2021/03/23 06:05:36;;;;;;;9.30;6.17;;;;;;;;;;5020995;28;20562;-75
2021/03/23 06:08:03;;;;;;;10.30;5.43;;;;;;;;;;5055120;28;20178;-76
2021/03/23 06:10:29;;;;;;;10.03;5.43;;;;;;;;;;5037441;28;20214;-75
2021/03/23 06:13:14;;;;;;;8.70;5.67;;;;;;;;;;5037643;28;20672;-75
2021/03/23 06:15:41;;;;;;;8.80;5.67;;;;;;;;;;5055422;28;20174;-75
2021/03/23 06:18:26;;;;;;;9.10;6.70;;;;;;;;;;5037244;28;20225;-75
2021/03/23 06:21:07;;;;;;;9.73;7.33;;;;;;;;;;5037464;28;20171;-76
2021/03/23 06:23:40;;;;;;;13.77;7.67;;;;;;;;;;5005856;28;20186;-76
2021/03/23 06:26:06;;;;;;;12.87;8.50;;;;;;;;;;5004959;28;20558;-75
2021/03/23 06:28:38;;;;;;;13.23;8.63;;;;;;;;;;5033549;28;20678;-75
2021/03/23 06:31:23;;;;;;;12.63;8.60;;;;;;;;;;5017370;28;20213;-75
2021/03/23 06:33:49;;;;;;;12.23;9.03;;;;;;;;;;5017372;28;20265;-76
2021/03/23 06:36:22;;;;;;;14.77;8.93;;;;;;;;;;5000861;28;20604;-76
2021/03/23 06:38:48;;;;;;;14.67;9.50;;;;;;;;;;5016966;28;20199;-76
2021/03/23 06:41:17;;;;;;;14.80;10.13;;;;;;;;;;5000261;28;20183;-79
2021/03/23 06:43:53;;;;;;;16.77;10.27;;;;;;;;;;5016772;28;20622;-77
2021/03/23 06:46:25;;;;;;;15.53;9.97;;;;;;;;;;4997855;28;20186;-76
2021/03/23 06:49:00;;;;;;;12.80;9.33;;;;;;;;;;5034301;28;20241;-77
2021/03/23 06:51:26;;;;;;;17.43;9.37;;;;;;;;;;5032648;28;20174;-76
2021/03/23 06:53:52;;;;;;;17.30;10.33;;;;;;;;;;5016799;28;20179;-76
2021/03/23 06:56:22;;;;;;;18.30;10.97;;;;;;;;;;5000359;28;20171;-76
2021/03/23 06:59:04;;;;;;;16.27;10.57;;;;;;;;;;5000247;28;20233;-77
2021/03/23 07:01:36;;;;;;;18.00;11.43;;;;;;;;;;5015448;28;20640;-77
2021/03/23 07:04:14;;;;;;;18.57;11.60;;;;;;;;;;4999071;28;20239;-77
2021/03/23 07:06:40;;;;;;;16.17;11.57;;;;;;;;;;4997484;28;20195;-77
2021/03/23 07:09:09;;;;;;;18.37;11.53;;;;;;;;;;5021676;28;20668;-77
2021/03/23 07:11:54;;;;;;;14.43;10.73;;;;;;;;;;5033615;28;20568;-79
2021/03/23 07:14:32;;;;;;;17.07;11.63;;;;;;;;;;5015990;28;20193;-76
2021/03/23 07:17:02;;;;;;;17.47;10.87;;;;;;;;;;5033994;28;20194;-78
2021/03/23 07:19:28;;;;;;;16.77;11.70;;;;;;;;;;5012654;28;20249;-79
2021/03/23 07:22:06;;;;;;;17.50;11.53;;;;;;;;;;5000097;28;20752;-79
2021/03/23 07:24:33;;;;;;;16.83;10.97;;;;;;;;;;4995487;28;20207;-78
2021/03/23 07:27:00;;;;;;;18.93;11.80;;;;;;;;;;4982242;28;20575;-78
2021/03/23 07:29:30;;;;;;;14.90;10.80;;;;;;;;;;4997990;28;20195;-79
2021/03/23 07:31:56;;;;;;;16.97;10.73;;;;;;;;;;4997227;28;20176;-80
2021/03/23 07:34:46;;;;;;;15.40;10.70;;;;;;;;;;5014494;28;20241;-79
2021/03/23 07:37:14;;;;;;;19.40;10.80;;;;;;;;;;5003051;28;20199;-79
2021/03/23 07:39:50;;;;;;;18.83;11.53;;;;;;;;;;4981050;28;20210;-78
2021/03/23 07:42:36;;;;;;;17.07;11.37;;;;;;;;;;5009040;28;20678;-78
2021/03/23 07:45:02;;;;;;;16.77;11.73;;;;;;;;;;5013666;28;20220;-78
2021/03/23 07:47:37;;;;;;;17.43;11.67;;;;;;;;;;5015541;28;20183;-78
2021/03/23 07:50:13;;;;;;;18.40;11.47;;;;;;;;;;4997548;28;20293;-79
2021/03/23 07:52:39;;;;;;;18.93;12.13;;;;;;;;;;5016418;28;20240;-77
2021/03/23 07:55:06;;;;;;;19.27;12.23;;;;;;;;;;5016427;28;20608;-76
2021/03/23 07:58:02;;;;;;;18.97;13.30;;;;;;;;;;5016278;28;20225;-78
2021/03/23 08:00:34;;;;;;;21.17;13.37;;;;;;;;;;4944303;28;20198;-77
2021/03/23 08:03:18;;;;;;;18.00;12.77;;;;;;;;;;5050652;28;20193;-77
2021/03/23 08:06:03;;;;;;;19.87;13.03;;;;;;;;;;5033569;28;20206;-77
2021/03/23 08:08:47;;;;;;;19.43;12.80;;;;;;;;;;5015726;28;20207;-76
2021/03/23 08:11:13;;;;;;;19.43;14.43;;;;;;;;;;5000423;28;20662;-79
2021/03/23 08:14:00;;;;;;;19.63;13.53;;;;;;;;;;5017291;28;20191;-75
2021/03/23 08:16:33;;;;;;;22.80;14.73;;;;;;;;;;5016324;28;20179;-75
2021/03/23 08:19:18;;;;;;;24.00;14.97;;;;;;;;;;5033536;28;20209;-74
2021/03/23 08:21:44;;;;;;;25.33;16.43;;;;;;;;;;5033388;28;20170;-76
2021/03/23 08:24:16;;;;;;;22.87;14.37;;;;;;;;;;5033548;28;20257;-79
2021/03/23 08:26:48;;;;;;;22.30;14.60;;;;;;;;;;5030587;28;20220;-78
2021/03/23 08:29:22;;;;;;;19.57;13.27;;;;;;;;;;5052603;28;20740;-78
2021/03/23 08:32:07;;;;;;;19.87;14.47;;;;;;;;;;5015423;28;20658;-78
2021/03/23 08:34:48;;;;;;;23.57;15.07;;;;;;;;;;4991025;28;20190;-81
2021/03/23 08:37:14;;;;;;;24.13;15.40;;;;;;;;;;5030847;28;20241;-77
2021/03/23 08:39:55;;;;;;;26.97;15.00;;;;;;;;;;5014568;28;20198;-79
2021/03/23 08:42:25;;;;;;;26.07;15.60;;;;;;;;;;5006639;28;20178;-77
2021/03/23 08:44:55;;;;;;;28.67;15.70;;;;;;;;;;5014672;28;20203;-76
2021/03/23 08:47:32;;;;;;;28.47;15.60;;;;;;;;;;5014867;28;20273;-78
2021/03/23 08:50:00;;;;;;;27.97;16.00;;;;;;;;;;4999011;28;20224;-78
2021/03/23 08:52:33;;;;;;;29.27;17.60;;;;;;;;;;4999723;28;20205;-79
2021/03/23 08:54:59;;;;;;;25.50;16.13;;;;;;;;;;5034204;28;20180;-76
2021/03/23 08:57:25;;;;;;;29.20;16.40;;;;;;;;;;4998693;28;20187;-76
2021/03/23 08:59:52;;;;;;;26.90;15.87;;;;;;;;;;5023789;28;20210;-76
2021/03/23 09:02:22;;;;;;;28.23;16.77;;;;;;;;;;5017077;28;20186;-81
2021/03/23 09:04:51;;;;;;;26.27;16.20;;;;;;;;;;5007487;28;20218;-78
2021/03/23 09:07:16;;;;;;;26.07;16.87;;;;;;;;;;5013939;28;20267;-78
2021/03/23 09:09:47;;;;;;;30.33;17.10;;;;;;;;;;5014994;28;20665;-77
2021/03/23 09:12:32;;;;;;;29.17;18.63;;;;;;;;;;5001511;28;20573;-77
2021/03/23 09:15:12;;;;;;;30.20;16.83;;;;;;;;;;5034900;28;20216;-75
2021/03/23 09:17:50;;;;;;;22.10;15.40;;;;;;;;;;5032043;28;20186;-75
2021/03/23 09:20:35;;;;;;;29.10;18.10;;;;;;;;;;5014606;28;20222;-75
2021/03/23 09:23:17;;;;;;;28.30;17.70;;;;;;;;;;5016133;28;20195;-76
2021/03/23 09:26:12;;;;;;;32.03;17.70;;;;;;;;;;5014791;28;20239;-76
2021/03/23 09:28:46;;;;;;;26.10;17.47;;;;;;;;;;5011270;28;20242;-78
2021/03/23 09:31:22;;;;;;;30.20;17.73;;;;;;;;;;5016573;28;20537;-76
2021/03/23 09:33:51;;;;;;;26.77;17.40;;;;;;;;;;4998638;28;20179;-77
2021/03/23 09:36:24;;;;;;;28.50;18.43;;;;;;;;;;5014866;28;20558;-77
2021/03/23 09:38:54;;;;;;;25.80;17.47;;;;;;;;;;5013326;28;20690;-76
2021/03/23 09:41:23;;;;;;;28.10;18.83;;;;;;;;;;5015353;28;20733;-76
2021/03/23 09:43:49;;;;;;;28.63;18.37;;;;;;;;;;5032401;28;20233;-77
2021/03/23 09:46:19;;;;;;;32.00;19.70;;;;;;;;;;5032299;28;20601;-76
2021/03/23 09:48:56;;;;;;;31.70;19.73;;;;;;;;;;5014464;28;20211;-76
2021/03/23 09:51:22;;;;;;;30.87;18.47;;;;;;;;;;5015311;28;20253;-73
2021/03/23 09:53:48;;;;;;;31.37;18.83;;;;;;;;;;5031661;28;20176;-74
2021/03/23 09:56:14;;;;;;;30.03;18.00;;;;;;;;;;5032184;28;20647;-75
2021/03/23 09:58:40;;;;;;;33.60;19.93;;;;;;;;;;5031733;28;20201;-75
2021/03/23 10:01:10;;;;;;;33.43;19.93;;;;;;;;;;5014273;28;20183;-77
2021/03/23 10:03:37;;;;;;;31.50;19.23;;;;;;;;;;4996958;28;20274;-75
2021/03/23 10:06:05;;;;;;;36.03;20.73;;;;;;;;;;4997341;28;20218;-75
2021/03/23 10:08:35;;;;;;;35.03;20.33;;;;;;;;;;4997258;28;20230;-76
2021/03/23 10:11:12;;;;;;;33.30;20.17;;;;;;;;;;4998754;28;20642;-75
2021/03/23 10:13:38;;;;;;;35.87;19.37;;;;;;;;;;4997755;28;20215;-76
2021/03/23 10:16:07;;;;;;;39.00;21.77;;;;;;;;;;5013841;28;20186;-76
2021/03/23 10:18:38;;;;;;;33.90;20.27;;;;;;;;;;5006177;28;20221;-76
2021/03/23 10:21:06;;;;;;;32.67;20.50;;;;;;;;;;5014252;28;20180;-76
2021/03/23 10:23:32;;;;;;;35.53;20.37;;;;;;;;;;5013775;28;20683;-75
2021/03/23 10:25:58;;;;;;;34.17;20.87;;;;;;;;;;5013880;28;20320;-76
2021/03/23 10:28:24;;;;;;;36.73;20.37;;;;;;;;;;5013629;28;20195;-75
2021/03/23 10:30:56;;;;;;;33.07;19.87;;;;;;;;;;5013588;28;20240;-76
2021/03/23 10:33:23;;;;;;;34.57;20.40;;;;;;;;;;5013792;28;20205;-76
2021/03/23 10:35:52;;;;;;;34.37;20.43;;;;;;;;;;4998190;28;20182;-76
2021/03/23 10:38:22;;;;;;;33.73;19.63;;;;;;;;;;5034743;28;20214;-76
2021/03/23 10:40:48;;;;;;;32.17;20.20;;;;;;;;;;5000882;28;20213;-75
2021/03/23 10:43:28;;;;;;;27.00;18.27;;;;;;;;;;5000776;28;20190;-76
2021/03/23 10:45:54;;;;;;;32.10;19.10;;;;;;;;;;5000649;28;20300;-76
2021/03/23 10:48:25;;;;;;;34.07;18.80;;;;;;;;;;5016763;28;20646;-76
2021/03/23 10:51:11;;;;;;;31.80;19.13;;;;;;;;;;5034492;28;20264;-76
2021/03/23 10:53:37;;;;;;;26.87;18.90;;;;;;;;;;5034652;28;20181;-75
2021/03/23 10:56:03;;;;;;;29.70;19.20;;;;;;;;;;5034576;28;20182;-76
2021/03/23 10:58:29;;;;;;;29.20;18.03;;;;;;;;;;5016407;28;20286;-76
2021/03/23 11:01:13;;;;;;;26.03;15.00;;;;;;;;;;5000910;28;20328;-76
2021/03/23 11:03:42;;;;;;;21.70;14.43;;;;;;;;;;5016905;28;20186;-76
2021/03/23 11:06:08;;;;;;;23.03;15.27;;;;;;;;;;5000847;28;20310;-76
2021/03/23 11:08:34;;;;;;;20.37;14.77;;;;;;;;;;5016732;28;20198;-75
2021/03/23 11:11:00;;;;;;;21.80;13.83;;;;;;;;;;5015971;28;20232;-75
2021/03/23 11:13:26;;;;;;;23.50;15.13;;;;;;;;;;5015911;28;20194;-74
2021/03/23 11:15:55;;;;;;;20.37;14.30;;;;;;;;;;5016716;28;20241;-75
2021/03/23 11:18:25;;;;;;;20.83;15.20;;;;;;;;;;5016122;28;20764;-78
2021/03/23 11:20:51;;;;;;;24.57;14.67;;;;;;;;;;5016443;28;20187;-75
2021/03/23 11:23:18;;;;;;;22.67;14.83;;;;;;;;;;5000564;28;20209;-75
2021/03/23 11:25:43;;;;;;;27.00;16.23;;;;;;;;;;5016475;28;20208;-76
2021/03/23 11:28:12;;;;;;;24.10;15.30;;;;;;;;;;4999795;28;20175;-75
2021/03/23 11:30:38;;;;;;;27.60;14.97;;;;;;;;;;5000436;28;20175;-76
2021/03/23 11:33:04;;;;;;;20.93;14.13;;;;;;;;;;5017526;28;20257;-76
2021/03/23 11:35:30;;;;;;;22.93;15.37;;;;;;;;;;5035711;28;20182;-76
2021/03/23 11:37:56;;;;;;;23.47;15.90;;;;;;;;;;5016976;28;20185;-77
2021/03/23 11:40:22;;;;;;;22.30;15.57;;;;;;;;;;5016174;28;20251;-77
2021/03/23 11:42:50;;;;;;;22.53;15.43;;;;;;;;;;5016107;28;20237;-77
2021/03/23 11:45:22;;;;;;;24.83;15.77;;;;;;;;;;5000513;28;20214;-77
2021/03/23 11:48:01;;;;;;;22.87;15.97;;;;;;;;;;5016020;28;20336;-77
2021/03/23 11:50:28;;;;;;;26.00;15.53;;;;;;;;;;5001191;28;20199;-77
2021/03/23 11:52:55;;;;;;;25.63;15.93;;;;;;;;;;5016735;28;20175;-77
2021/03/23 11:55:25;;;;;;;23.03;15.77;;;;;;;;;;5018512;28;20182;-79
2021/03/23 11:57:51;;;;;;;22.57;16.00;;;;;;;;;;5000883;28;20189;-77
2021/03/23 12:00:17;;;;;;;24.57;16.10;;;;;;;;;;5000975;28;20210;-77
2021/03/23 12:02:43;;;;;;;23.27;15.37;;;;;;;;;;5000410;28;20274;-79
2021/03/23 12:05:10;;;;;;;25.90;16.17;;;;;;;;;;5000327;28;20707;-78
2021/03/23 12:07:40;;;;;;;21.53;16.13;;;;;;;;;;5000491;28;20182;-78
2021/03/23 12:10:41;;;;;;;24.77;16.83;;;;;;;;;;5017196;28;20198;-78
2021/03/23 12:13:14;;;;;;;26.60;17.03;;;;;;;;;;4919114;29;20189;-76
2021/03/23 12:15:42;;;;;;;24.00;17.93;;;;;;;;;;5018456;28;20205;-77
2021/03/23 12:18:10;;;;;;;27.50;18.27;;;;;;;;;;5000182;28;20179;-76
2021/03/23 12:20:37;;;;;;;23.63;17.20;;;;;;;;;;5016059;28;20193;-76
2021/03/23 12:23:03;;;;;;;23.37;15.97;;;;;;;;;;4999842;28;20186;-77
2021/03/23 12:25:29;;;;;;;25.73;17.43;;;;;;;;;;4999561;28;20210;-76
2021/03/23 12:27:56;;;;;;;28.30;17.97;;;;;;;;;;5015185;28;20636;-76
2021/03/23 12:30:23;;;;;;;23.23;18.03;;;;;;;;;;4999063;28;20199;-75
2021/03/23 12:32:49;;;;;;;28.20;18.80;;;;;;;;;;4999627;28;20181;-76
2021/03/23 12:35:17;;;;;;;27.83;19.00;;;;;;;;;;5032828;28;20186;-75
2021/03/23 12:37:43;;;;;;;23.70;16.93;;;;;;;;;;5015016;28;20632;-76
2021/03/23 12:40:10;;;;;;;23.10;17.13;;;;;;;;;;4999330;28;20203;-75
2021/03/23 12:42:36;;;;;;;24.57;17.30;;;;;;;;;;5034049;28;20189;-75
2021/03/23 12:45:02;;;;;;;24.43;16.87;;;;;;;;;;5016074;28;20286;-75
2021/03/23 12:47:28;;;;;;;27.10;17.77;;;;;;;;;;5015195;28;20235;-75
2021/03/23 12:49:54;;;;;;;25.73;17.57;;;;;;;;;;4998898;28;20562;-76
2021/03/23 12:52:22;;;;;;;23.27;17.60;;;;;;;;;;5015579;28;20233;-75
2021/03/23 12:54:54;;;;;;;23.10;17.43;;;;;;;;;;4999078;28;20183;-75
2021/03/23 12:57:21;;;;;;;22.63;16.17;;;;;;;;;;5015326;28;20171;-75
2021/03/23 12:59:48;;;;;;;23.17;17.43;;;;;;;;;;5014469;28;20230;-76
2021/03/23 13:02:15;;;;;;;24.50;16.17;;;;;;;;;;4998569;28;20644;-75
2021/03/23 13:04:41;;;;;;;23.17;16.70;;;;;;;;;;5015058;28;20668;-75
2021/03/23 13:07:09;;;;;;;23.07;16.10;;;;;;;;;;5014772;28;20228;-76
2021/03/23 13:09:37;;;;;;;23.80;15.70;;;;;;;;;;5013936;28;20252;-75
2021/03/23 13:12:04;;;;;;;23.50;16.27;;;;;;;;;;5014820;28;20265;-75
2021/03/23 13:14:30;;;;;;;25.60;16.60;;;;;;;;;;5014785;28;20220;-74
2021/03/23 13:16:56;;;;;;;23.77;16.90;;;;;;;;;;5014866;28;20190;-75
2021/03/23 13:19:22;;;;;;;24.47;17.27;;;;;;;;;;4998138;28;20440;-74
2021/03/23 13:22:14;;;;;;;26.50;17.77;;;;;;;;;;5013513;28;20762;-75
2021/03/23 13:24:41;;;;;;;27.93;18.33;;;;;;;;;;4975365;28;20219;-78
2021/03/23 13:27:23;;;;;;;27.53;18.80;;;;;;;;;;4993355;28;20205;-79
2021/03/23 13:29:49;;;;;;;25.37;18.80;;;;;;;;;;5015061;28;20199;-79
2021/03/23 13:32:15;;;;;;;30.13;18.43;;;;;;;;;;5000230;28;20640;-78
2021/03/23 13:34:41;;;;;;;31.00;19.03;;;;;;;;;;5014124;28;20644;-78
2021/03/23 13:37:09;;;;;;;25.77;18.57;;;;;;;;;;5014973;28;20189;-78
2021/03/23 13:39:39;;;;;;;26.53;18.93;;;;;;;;;;5014427;28;20594;-78
2021/03/23 13:42:14;;;;;;;26.60;18.10;;;;;;;;;;4998746;28;20265;-77
2021/03/23 13:44:44;;;;;;;26.67;18.73;;;;;;;;;;5015485;28;20203;-78
2021/03/23 13:47:10;;;;;;;27.30;17.97;;;;;;;;;;5014558;28;20175;-77
2021/03/23 13:49:37;;;;;;;27.53;19.60;;;;;;;;;;5015529;28;20203;-73
2021/03/23 13:52:03;;;;;;;27.87;19.23;;;;;;;;;;5032892;28;20226;-80
2021/03/23 13:54:29;;;;;;;26.60;18.83;;;;;;;;;;5018180;28;20187;-81
2021/03/23 13:56:55;;;;;;;25.80;19.03;;;;;;;;;;4998982;28;20186;-80
2021/03/23 13:59:21;;;;;;;29.63;19.63;;;;;;;;;;4992973;28;20210;-78
2021/03/23 14:01:48;;;;;;;28.97;20.43;;;;;;;;;;4999241;28;20190;-79
2021/03/23 14:04:14;;;;;;;30.23;19.27;;;;;;;;;;5013962;28;20245;-81
2021/03/23 14:06:40;;;;;;;31.27;21.10;;;;;;;;;;4995768;28;20656;-80
2021/03/23 14:09:08;;;;;;;28.60;20.40;;;;;;;;;;5012336;28;20210;-79
2021/03/23 14:11:35;;;;;;;30.47;21.10;;;;;;;;;;5004312;28;20644;-83
2021/03/23 14:14:01;;;;;;;32.57;22.57;;;;;;;;;;5004838;28;20179;-82
2021/03/23 14:16:27;;;;;;;38.10;24.37;;;;;;;;;;5002991;28;20604;-81
2021/03/23 14:18:53;;;;;;;40.03;24.20;;;;;;;;;;5003016;28;20202;-83
2021/03/23 14:21:19;;;;;;;39.73;23.60;;;;;;;;;;5007212;28;20625;-82
2021/03/23 14:23:46;;;;;;;34.37;23.90;;;;;;;;;;5004978;28;20183;-81
2021/03/23 14:26:12;;;;;;;38.57;24.00;;;;;;;;;;5003425;28;20285;-79
2021/03/23 14:28:50;;;;;;;39.07;25.83;;;;;;;;;;5001519;28;20236;-79
2021/03/23 14:31:16;;;;;;;38.80;25.27;;;;;;;;;;5017062;28;20202;-80
2021/03/23 14:33:42;;;;;;;38.70;26.57;;;;;;;;;;5018034;28;20189;-79
2021/03/23 14:36:08;;;;;;;39.70;27.77;;;;;;;;;;5018073;28;20179;-79
2021/03/23 14:38:35;;;;;;;44.13;27.33;;;;;;;;;;5017569;28;20199;-79